sensor_id;sensor_type;location;lat;lon;timestamp;temperature;humidity
23556;DHT22;11956;53.184;8.578;2022-11-15T00:02:14;7.40;99.90
23556;DHT22;11956;53.184;8.578;2022-11-15T00:05:36;7.40;99.90
23556;DHT22;11956;53.184;8.578;2022-11-15T00:09:00;7.40;99.90
23556;DHT22;11956;53.184;8.578;2022-11-15T00:12:20;7.40;99.90
23556;DHT22;11956;53.184;8.578;2022-11-15T00:15:40;7.30;99.90
23556;DHT22;11956;53.184;8.578;2022-11-15T00:19:00;7.30;99.90
23556;DHT22;11956;53.184;8.578;2022-11-15T00:22:19;7.30;99.90
23556;DHT22;11956;53.184;8.578;2022-11-15T00:25:39;7.30;99.90
23556;DHT22;11956;53.184;8.578;2022-11-15T00:28:58;7.20;99.90
23556;DHT22;11956;53.184;8.578;2022-11-15T00:32:18;7.20;99.90
23556;DHT22;11956;53.184;8.578;2022-11-15T00:35:37;7.10;99.90
23556;DHT22;11956;53.184;8.578;2022-11-15T00:38:57;7.10;99.90
23556;DHT22;11956;53.184;8.578;2022-11-15T00:42:17;7.10;99.90
23556;DHT22;11956;53.184;8.578;2022-11-15T00:45:36;7.10;99.90
23556;DHT22;11956;53.184;8.578;2022-11-15T00:48:56;7.10;99.90
23556;DHT22;11956;53.184;8.578;2022-11-15T00:52:15;7.00;99.90
23556;DHT22;11956;53.184;8.578;2022-11-15T00:55:35;7.00;99.90
23556;DHT22;11956;53.184;8.578;2022-11-15T00:58:55;7.00;99.90
23556;DHT22;11956;53.184;8.578;2022-11-15T01:02:20;7.00;99.90
23556;DHT22;11956;53.184;8.578;2022-11-15T01:05:40;7.00;99.90
23556;DHT22;11956;53.184;8.578;2022-11-15T01:08:59;7.00;99.90
23556;DHT22;11956;53.184;8.578;2022-11-15T01:12:19;7.00;99.90
23556;DHT22;11956;53.184;8.578;2022-11-15T01:15:40;7.10;99.90
23556;DHT22;11956;53.184;8.578;2022-11-15T01:19:00;7.20;99.90
23556;DHT22;11956;53.184;8.578;2022-11-15T01:22:19;7.20;99.90
23556;DHT22;11956;53.184;8.578;2022-11-15T01:25:39;7.20;99.90
23556;DHT22;11956;53.184;8.578;2022-11-15T01:28:59;7.20;99.90
23556;DHT22;11956;53.184;8.578;2022-11-15T01:32:18;7.20;99.90
23556;DHT22;11956;53.184;8.578;2022-11-15T01:35:39;7.20;99.90
23556;DHT22;11956;53.184;8.578;2022-11-15T01:38:59;7.20;99.90
23556;DHT22;11956;53.184;8.578;2022-11-15T01:42:18;7.10;99.90
23556;DHT22;11956;53.184;8.578;2022-11-15T01:45:38;7.10;99.90
23556;DHT22;11956;53.184;8.578;2022-11-15T01:49:02;7.10;99.90
23556;DHT22;11956;53.184;8.578;2022-11-15T01:52:27;7.10;99.90
23556;DHT22;11956;53.184;8.578;2022-11-15T01:55:48;7.10;99.90
23556;DHT22;11956;53.184;8.578;2022-11-15T01:59:08;7.10;99.90
23556;DHT22;11956;53.184;8.578;2022-11-15T02:02:28;7.10;99.90
23556;DHT22;11956;53.184;8.578;2022-11-15T02:05:49;7.10;99.90
23556;DHT22;11956;53.184;8.578;2022-11-15T02:09:09;7.10;99.90
23556;DHT22;11956;53.184;8.578;2022-11-15T02:12:29;7.10;99.90
23556;DHT22;11956;53.184;8.578;2022-11-15T02:16:01;7.10;99.90
23556;DHT22;11956;53.184;8.578;2022-11-15T02:23:31;7.30;99.90
23556;DHT22;11956;53.184;8.578;2022-11-15T02:43:08;7.70;99.90
23556;DHT22;11956;53.184;8.578;2022-11-15T02:47:02;7.70;99.90
23556;DHT22;11956;53.184;8.578;2022-11-15T02:50:33;7.80;99.90
23556;DHT22;11956;53.184;8.578;2022-11-15T02:53:53;7.80;99.90
23556;DHT22;11956;53.184;8.578;2022-11-15T02:57:16;7.90;99.90
23556;DHT22;11956;53.184;8.578;2022-11-15T03:00:47;7.90;99.90
23556;DHT22;11956;53.184;8.578;2022-11-15T03:11:48;8.10;99.90
23556;DHT22;11956;53.184;8.578;2022-11-15T03:15:52;8.20;99.90
23556;DHT22;11956;53.184;8.578;2022-11-15T03:22:48;8.30;99.90
23556;DHT22;11956;53.184;8.578;2022-11-15T03:26:11;8.30;99.90
23556;DHT22;11956;53.184;8.578;2022-11-15T03:29:33;8.30;99.90
23556;DHT22;11956;53.184;8.578;2022-11-15T03:32:57;8.40;99.90
23556;DHT22;11956;53.184;8.578;2022-11-15T03:36:18;8.50;99.90
23556;DHT22;11956;53.184;8.578;2022-11-15T03:39:37;8.60;99.90
23556;DHT22;11956;53.184;8.578;2022-11-15T03:46:31;8.50;99.90
23556;DHT22;11956;53.184;8.578;2022-11-15T03:49:58;8.60;99.90
23556;DHT22;11956;53.184;8.578;2022-11-15T03:53:20;8.60;99.90
23556;DHT22;11956;53.184;8.578;2022-11-15T03:56:39;8.60;99.90
23556;DHT22;11956;53.184;8.578;2022-11-15T03:59:59;8.70;99.90
23556;DHT22;11956;53.184;8.578;2022-11-15T04:03:18;8.80;99.90
23556;DHT22;11956;53.184;8.578;2022-11-15T04:06:38;8.90;99.90
23556;DHT22;11956;53.184;8.578;2022-11-15T04:09:57;8.90;99.90
23556;DHT22;11956;53.184;8.578;2022-11-15T04:13:22;8.90;99.90
23556;DHT22;11956;53.184;8.578;2022-11-15T04:16:42;9.00;99.90
23556;DHT22;11956;53.184;8.578;2022-11-15T04:20:04;9.10;99.90
23556;DHT22;11956;53.184;8.578;2022-11-15T04:23:43;9.20;99.90
23556;DHT22;11956;53.184;8.578;2022-11-15T04:27:21;9.20;99.90
23556;DHT22;11956;53.184;8.578;2022-11-15T04:30:40;9.30;99.90
23556;DHT22;11956;53.184;8.578;2022-11-15T04:34:00;9.40;99.90
23556;DHT22;11956;53.184;8.578;2022-11-15T04:37:19;9.40;99.90
23556;DHT22;11956;53.184;8.578;2022-11-15T04:40:39;9.50;99.90
23556;DHT22;11956;53.184;8.578;2022-11-15T04:43:59;9.50;99.90
23556;DHT22;11956;53.184;8.578;2022-11-15T04:47:18;9.60;99.90
23556;DHT22;11956;53.184;8.578;2022-11-15T04:50:38;9.60;99.90
23556;DHT22;11956;53.184;8.578;2022-11-15T04:53:57;9.70;99.90
23556;DHT22;11956;53.184;8.578;2022-11-15T04:57:17;9.70;99.90
23556;DHT22;11956;53.184;8.578;2022-11-15T05:00:37;9.80;99.90
23556;DHT22;11956;53.184;8.578;2022-11-15T05:03:57;9.80;99.90
23556;DHT22;11956;53.184;8.578;2022-11-15T05:07:35;9.80;99.90
23556;DHT22;11956;53.184;8.578;2022-11-15T05:10:54;9.90;99.90
23556;DHT22;11956;53.184;8.578;2022-11-15T05:14:14;9.90;99.90
23556;DHT22;11956;53.184;8.578;2022-11-15T05:17:34;9.80;99.90
23556;DHT22;11956;53.184;8.578;2022-11-15T05:20:54;9.80;99.90
23556;DHT22;11956;53.184;8.578;2022-11-15T05:24:13;9.80;99.90
23556;DHT22;11956;53.184;8.578;2022-11-15T05:27:34;9.80;99.90
23556;DHT22;11956;53.184;8.578;2022-11-15T05:30:53;9.80;99.90
23556;DHT22;11956;53.184;8.578;2022-11-15T05:34:20;9.90;99.90
23556;DHT22;11956;53.184;8.578;2022-11-15T05:37:41;10.00;99.90
23556;DHT22;11956;53.184;8.578;2022-11-15T05:41:02;10.00;99.90
23556;DHT22;11956;53.184;8.578;2022-11-15T05:44:23;9.90;99.90
23556;DHT22;11956;53.184;8.578;2022-11-15T05:47:44;9.90;99.90
23556;DHT22;11956;53.184;8.578;2022-11-15T05:51:05;9.90;99.90
23556;DHT22;11956;53.184;8.578;2022-11-15T05:54:26;10.00;99.90
23556;DHT22;11956;53.184;8.578;2022-11-15T05:57:45;10.00;99.90
23556;DHT22;11956;53.184;8.578;2022-11-15T06:01:05;10.00;99.90
23556;DHT22;11956;53.184;8.578;2022-11-15T06:04:24;10.10;99.90
23556;DHT22;11956;53.184;8.578;2022-11-15T06:07:43;10.00;99.90
23556;DHT22;11956;53.184;8.578;2022-11-15T06:11:07;10.00;99.90
23556;DHT22;11956;53.184;8.578;2022-11-15T06:14:26;10.00;99.90
23556;DHT22;11956;53.184;8.578;2022-11-15T06:17:46;10.00;99.90
23556;DHT22;11956;53.184;8.578;2022-11-15T06:21:05;10.00;99.90
23556;DHT22;11956;53.184;8.578;2022-11-15T06:24:25;10.00;99.90
23556;DHT22;11956;53.184;8.578;2022-11-15T06:27:51;10.00;99.90
23556;DHT22;11956;53.184;8.578;2022-11-15T06:31:12;10.00;99.90
23556;DHT22;11956;53.184;8.578;2022-11-15T06:34:31;10.10;99.90
23556;DHT22;11956;53.184;8.578;2022-11-15T06:37:51;10.00;99.90
23556;DHT22;11956;53.184;8.578;2022-11-15T06:41:12;10.10;99.90
23556;DHT22;11956;53.184;8.578;2022-11-15T06:44:32;10.20;99.90
23556;DHT22;11956;53.184;8.578;2022-11-15T06:47:52;10.20;99.90
23556;DHT22;11956;53.184;8.578;2022-11-15T06:51:11;10.20;99.90
23556;DHT22;11956;53.184;8.578;2022-11-15T06:54:31;10.30;99.90
23556;DHT22;11956;53.184;8.578;2022-11-15T06:57:52;10.30;99.90
23556;DHT22;11956;53.184;8.578;2022-11-15T07:01:12;10.30;99.90
23556;DHT22;11956;53.184;8.578;2022-11-15T07:04:31;10.30;99.90
23556;DHT22;11956;53.184;8.578;2022-11-15T07:07:52;10.30;99.90
23556;DHT22;11956;53.184;8.578;2022-11-15T07:11:13;10.40;99.90
23556;DHT22;11956;53.184;8.578;2022-11-15T07:14:32;10.40;99.90
23556;DHT22;11956;53.184;8.578;2022-11-15T07:17:52;10.40;99.90
23556;DHT22;11956;53.184;8.578;2022-11-15T07:21:12;10.40;99.90
23556;DHT22;11956;53.184;8.578;2022-11-15T07:24:31;10.60;99.90
23556;DHT22;11956;53.184;8.578;2022-11-15T07:27:55;10.60;99.90
23556;DHT22;11956;53.184;8.578;2022-11-15T07:31:17;10.70;99.90
23556;DHT22;11956;53.184;8.578;2022-11-15T07:34:37;10.80;99.90
23556;DHT22;11956;53.184;8.578;2022-11-15T07:37:58;10.80;99.90
23556;DHT22;11956;53.184;8.578;2022-11-15T07:41:19;10.90;99.90
23556;DHT22;11956;53.184;8.578;2022-11-15T07:44:38;11.00;99.90
23556;DHT22;11956;53.184;8.578;2022-11-15T07:47:58;11.10;99.90
23556;DHT22;11956;53.184;8.578;2022-11-15T07:51:17;11.20;99.90
23556;DHT22;11956;53.184;8.578;2022-11-15T07:54:37;11.20;99.90
23556;DHT22;11956;53.184;8.578;2022-11-15T07:58:05;11.40;99.90
23556;DHT22;11956;53.184;8.578;2022-11-15T08:01:26;11.50;99.90
23556;DHT22;11956;53.184;8.578;2022-11-15T08:04:46;11.70;99.90
23556;DHT22;11956;53.184;8.578;2022-11-15T08:08:07;11.90;99.90
23556;DHT22;11956;53.184;8.578;2022-11-15T08:11:28;11.90;99.90
23556;DHT22;11956;53.184;8.578;2022-11-15T08:14:47;11.90;99.90
23556;DHT22;11956;53.184;8.578;2022-11-15T08:18:11;11.80;99.90
23556;DHT22;11956;53.184;8.578;2022-11-15T08:21:33;11.70;99.90
23556;DHT22;11956;53.184;8.578;2022-11-15T08:24:52;11.70;99.90
23556;DHT22;11956;53.184;8.578;2022-11-15T08:28:12;11.70;99.90
23556;DHT22;11956;53.184;8.578;2022-11-15T08:31:31;11.90;99.90
23556;DHT22;11956;53.184;8.578;2022-11-15T08:34:51;11.90;99.90
23556;DHT22;11956;53.184;8.578;2022-11-15T08:38:11;12.00;99.90
23556;DHT22;11956;53.184;8.578;2022-11-15T08:41:36;12.00;99.90
23556;DHT22;11956;53.184;8.578;2022-11-15T08:44:56;12.00;99.90
23556;DHT22;11956;53.184;8.578;2022-11-15T08:48:15;12.00;99.90
23556;DHT22;11956;53.184;8.578;2022-11-15T08:51:35;12.00;99.90
23556;DHT22;11956;53.184;8.578;2022-11-15T08:54:54;11.90;99.90
23556;DHT22;11956;53.184;8.578;2022-11-15T08:58:14;12.00;99.90
23556;DHT22;11956;53.184;8.578;2022-11-15T09:01:34;12.00;99.90
23556;DHT22;11956;53.184;8.578;2022-11-15T09:04:53;12.10;99.90
23556;DHT22;11956;53.184;8.578;2022-11-15T09:08:13;12.00;99.90
23556;DHT22;11956;53.184;8.578;2022-11-15T09:11:33;12.10;99.90
23556;DHT22;11956;53.184;8.578;2022-11-15T09:14:53;12.10;99.90
23556;DHT22;11956;53.184;8.578;2022-11-15T09:18:13;12.10;99.90
23556;DHT22;11956;53.184;8.578;2022-11-15T09:21:32;12.20;99.90
23556;DHT22;11956;53.184;8.578;2022-11-15T09:24:52;12.20;99.90
23556;DHT22;11956;53.184;8.578;2022-11-15T09:28:11;12.10;99.90
23556;DHT22;11956;53.184;8.578;2022-11-15T09:31:31;12.10;99.90
23556;DHT22;11956;53.184;8.578;2022-11-15T09:34:51;12.20;99.90
23556;DHT22;11956;53.184;8.578;2022-11-15T09:38:10;12.40;99.90
23556;DHT22;11956;53.184;8.578;2022-11-15T09:41:48;12.40;99.90
23556;DHT22;11956;53.184;8.578;2022-11-15T09:49:29;12.50;99.90
23556;DHT22;11956;53.184;8.578;2022-11-15T09:52:50;12.80;99.90
23556;DHT22;11956;53.184;8.578;2022-11-15T09:56:03;13.00;99.90
23556;DHT22;11956;53.184;8.578;2022-11-15T10:03:50;13.20;99.90
23556;DHT22;11956;53.184;8.578;2022-11-15T10:06:28;13.40;99.90
23556;DHT22;11956;53.184;8.578;2022-11-15T10:09:39;13.60;99.90
23556;DHT22;11956;53.184;8.578;2022-11-15T10:12:48;13.70;99.90
23556;DHT22;11956;53.184;8.578;2022-11-15T10:15:53;13.70;99.90
23556;DHT22;11956;53.184;8.578;2022-11-15T10:22:50;14.20;99.90
23556;DHT22;11956;53.184;8.578;2022-11-15T10:26:00;14.20;99.90
23556;DHT22;11956;53.184;8.578;2022-11-15T10:29:01;14.10;99.90
23556;DHT22;11956;53.184;8.578;2022-11-15T10:32:02;13.90;99.90
23556;DHT22;11956;53.184;8.578;2022-11-15T10:35:36;13.60;99.90
23556;DHT22;11956;53.184;8.578;2022-11-15T10:41:50;13.70;99.90
23556;DHT22;11956;53.184;8.578;2022-11-15T10:44:51;13.90;99.90
23556;DHT22;11956;53.184;8.578;2022-11-15T10:47:52;13.70;99.90
23556;DHT22;11956;53.184;8.578;2022-11-15T10:50:54;13.70;99.90
23556;DHT22;11956;53.184;8.578;2022-11-15T10:53:58;13.70;99.90
23556;DHT22;11956;53.184;8.578;2022-11-15T10:57:10;13.60;99.90
23556;DHT22;11956;53.184;8.578;2022-11-15T11:06:52;14.30;99.90
23556;DHT22;11956;53.184;8.578;2022-11-15T11:10:18;14.70;99.90
23556;DHT22;11956;53.184;8.578;2022-11-15T11:13:27;14.60;99.90
23556;DHT22;11956;53.184;8.578;2022-11-15T11:16:43;14.80;99.90
23556;DHT22;11956;53.184;8.578;2022-11-15T11:30:13;14.70;99.90
23556;DHT22;11956;53.184;8.578;2022-11-15T11:33:24;14.90;99.90
23556;DHT22;11956;53.184;8.578;2022-11-15T11:40:32;15.00;99.90
23556;DHT22;11956;53.184;8.578;2022-11-15T11:43:57;15.20;99.90
23556;DHT22;11956;53.184;8.578;2022-11-15T11:47:14;15.40;99.90
23556;DHT22;11956;53.184;8.578;2022-11-15T11:50:29;15.40;99.90
23556;DHT22;11956;53.184;8.578;2022-11-15T11:53:39;15.60;99.90
23556;DHT22;11956;53.184;8.578;2022-11-15T11:56:44;15.70;99.90
23556;DHT22;11956;53.184;8.578;2022-11-15T11:59:55;15.60;99.90
23556;DHT22;11956;53.184;8.578;2022-11-15T12:03:12;15.70;99.90
23556;DHT22;11956;53.184;8.578;2022-11-15T12:06:52;15.50;99.90
23556;DHT22;11956;53.184;8.578;2022-11-15T12:09:59;15.40;99.90
23556;DHT22;11956;53.184;8.578;2022-11-15T12:13:05;15.30;99.90
23556;DHT22;11956;53.184;8.578;2022-11-15T12:16:29;15.30;99.90
23556;DHT22;11956;53.184;8.578;2022-11-15T12:19:32;15.50;99.90
23556;DHT22;11956;53.184;8.578;2022-11-15T12:25:51;15.70;99.90
23556;DHT22;11956;53.184;8.578;2022-11-15T12:35:42;15.70;99.90
23556;DHT22;11956;53.184;8.578;2022-11-15T12:38:50;15.80;99.90
23556;DHT22;11956;53.184;8.578;2022-11-15T12:44:57;15.50;99.90
23556;DHT22;11956;53.184;8.578;2022-11-15T12:54:58;15.40;99.90
23556;DHT22;11956;53.184;8.578;2022-11-15T12:58:27;15.50;99.90
23556;DHT22;11956;53.184;8.578;2022-11-15T13:04:38;15.40;99.90
23556;DHT22;11956;53.184;8.578;2022-11-15T13:10:39;15.40;99.90
23556;DHT22;11956;53.184;8.578;2022-11-15T13:13:44;15.40;99.90
23556;DHT22;11956;53.184;8.578;2022-11-15T13:16:46;15.30;99.90
23556;DHT22;11956;53.184;8.578;2022-11-15T13:23:15;15.30;99.90
23556;DHT22;11956;53.184;8.578;2022-11-15T13:26:17;15.20;99.90
23556;DHT22;11956;53.184;8.578;2022-11-15T13:29:19;15.20;99.90
23556;DHT22;11956;53.184;8.578;2022-11-15T13:32:21;15.20;99.90
23556;DHT22;11956;53.184;8.578;2022-11-15T13:35:25;15.30;99.90
23556;DHT22;11956;53.184;8.578;2022-11-15T13:41:35;15.30;99.90
23556;DHT22;11956;53.184;8.578;2022-11-15T13:44:37;15.20;99.90
23556;DHT22;11956;53.184;8.578;2022-11-15T13:47:37;15.10;99.90
23556;DHT22;11956;53.184;8.578;2022-11-15T13:50:39;15.00;99.90
23556;DHT22;11956;53.184;8.578;2022-11-15T13:53:42;14.90;99.90
23556;DHT22;11956;53.184;8.578;2022-11-15T13:56:54;14.80;99.90
23556;DHT22;11956;53.184;8.578;2022-11-15T14:00:02;14.70;99.90
23556;DHT22;11956;53.184;8.578;2022-11-15T14:03:23;14.60;99.90
23556;DHT22;11956;53.184;8.578;2022-11-15T14:06:29;14.50;99.90
23556;DHT22;11956;53.184;8.578;2022-11-15T14:09:34;14.50;99.90
23556;DHT22;11956;53.184;8.578;2022-11-15T14:12:50;14.50;99.90
23556;DHT22;11956;53.184;8.578;2022-11-15T14:15:51;14.40;99.90
23556;DHT22;11956;53.184;8.578;2022-11-15T14:18:53;14.40;99.90
23556;DHT22;11956;53.184;8.578;2022-11-15T14:22:22;14.40;99.90
23556;DHT22;11956;53.184;8.578;2022-11-15T14:25:29;14.40;99.90
23556;DHT22;11956;53.184;8.578;2022-11-15T14:28:34;14.40;99.90
23556;DHT22;11956;53.184;8.578;2022-11-15T14:31:38;14.30;99.90
23556;DHT22;11956;53.184;8.578;2022-11-15T14:34:41;14.20;99.90
23556;DHT22;11956;53.184;8.578;2022-11-15T14:37:42;14.10;99.90
23556;DHT22;11956;53.184;8.578;2022-11-15T14:40:44;14.10;99.90
23556;DHT22;11956;53.184;8.578;2022-11-15T14:43:45;14.00;99.90
23556;DHT22;11956;53.184;8.578;2022-11-15T14:46:46;13.90;99.90
23556;DHT22;11956;53.184;8.578;2022-11-15T14:49:48;13.80;99.90
23556;DHT22;11956;53.184;8.578;2022-11-15T14:52:49;13.70;99.90
23556;DHT22;11956;53.184;8.578;2022-11-15T14:55:50;13.60;99.90
23556;DHT22;11956;53.184;8.578;2022-11-15T14:58:51;13.50;99.90
23556;DHT22;11956;53.184;8.578;2022-11-15T15:01:52;13.30;99.90
23556;DHT22;11956;53.184;8.578;2022-11-15T15:04:53;13.20;99.90
23556;DHT22;11956;53.184;8.578;2022-11-15T15:07:54;13.10;99.90
23556;DHT22;11956;53.184;8.578;2022-11-15T15:10:55;12.90;99.90
23556;DHT22;11956;53.184;8.578;2022-11-15T15:13:56;12.70;99.90
23556;DHT22;11956;53.184;8.578;2022-11-15T15:16:58;12.50;99.90
23556;DHT22;11956;53.184;8.578;2022-11-15T15:19:59;12.40;99.90
23556;DHT22;11956;53.184;8.578;2022-11-15T15:23:00;12.20;99.90
23556;DHT22;11956;53.184;8.578;2022-11-15T15:26:01;12.00;99.90
23556;DHT22;11956;53.184;8.578;2022-11-15T15:29:02;11.90;99.90
23556;DHT22;11956;53.184;8.578;2022-11-15T15:32:03;11.70;99.90
23556;DHT22;11956;53.184;8.578;2022-11-15T15:35:04;11.60;99.90
23556;DHT22;11956;53.184;8.578;2022-11-15T15:38:05;11.60;99.90
23556;DHT22;11956;53.184;8.578;2022-11-15T15:41:16;11.50;99.90
23556;DHT22;11956;53.184;8.578;2022-11-15T15:44:17;11.40;99.90
23556;DHT22;11956;53.184;8.578;2022-11-15T15:47:21;11.30;99.90
23556;DHT22;11956;53.184;8.578;2022-11-15T15:50:28;11.30;99.90
23556;DHT22;11956;53.184;8.578;2022-11-15T15:53:30;11.40;99.90
23556;DHT22;11956;53.184;8.578;2022-11-15T15:56:31;11.40;99.90
23556;DHT22;11956;53.184;8.578;2022-11-15T15:59:32;11.40;99.90
23556;DHT22;11956;53.184;8.578;2022-11-15T16:02:33;11.40;99.90
23556;DHT22;11956;53.184;8.578;2022-11-15T16:05:34;11.40;99.90
23556;DHT22;11956;53.184;8.578;2022-11-15T16:08:35;11.50;99.90
23556;DHT22;11956;53.184;8.578;2022-11-15T16:11:37;11.60;99.90
23556;DHT22;11956;53.184;8.578;2022-11-15T16:14:38;11.70;99.90
23556;DHT22;11956;53.184;8.578;2022-11-15T16:17:44;11.90;99.90
23556;DHT22;11956;53.184;8.578;2022-11-15T16:20:49;11.90;99.90
23556;DHT22;11956;53.184;8.578;2022-11-15T16:23:52;11.90;99.90
23556;DHT22;11956;53.184;8.578;2022-11-15T16:26:53;11.90;99.90
23556;DHT22;11956;53.184;8.578;2022-11-15T16:29:54;11.80;99.90
23556;DHT22;11956;53.184;8.578;2022-11-15T16:32:55;11.80;99.90
23556;DHT22;11956;53.184;8.578;2022-11-15T16:35:56;11.90;99.90
23556;DHT22;11956;53.184;8.578;2022-11-15T16:38:57;12.00;99.90
23556;DHT22;11956;53.184;8.578;2022-11-15T16:41:59;12.00;99.90
23556;DHT22;11956;53.184;8.578;2022-11-15T16:45:00;12.00;99.90
23556;DHT22;11956;53.184;8.578;2022-11-15T16:48:01;12.00;99.90
23556;DHT22;11956;53.184;8.578;2022-11-15T16:51:02;12.10;99.90
23556;DHT22;11956;53.184;8.578;2022-11-15T16:54:04;12.00;99.90
23556;DHT22;11956;53.184;8.578;2022-11-15T16:57:05;12.20;99.90
23556;DHT22;11956;53.184;8.578;2022-11-15T17:00:08;12.10;99.90
23556;DHT22;11956;53.184;8.578;2022-11-15T17:03:11;12.20;99.90
23556;DHT22;11956;53.184;8.578;2022-11-15T17:06:13;12.30;99.90
23556;DHT22;11956;53.184;8.578;2022-11-15T17:09:18;12.30;99.90
23556;DHT22;11956;53.184;8.578;2022-11-15T17:12:23;12.40;99.90
23556;DHT22;11956;53.184;8.578;2022-11-15T17:15:23;12.40;99.90
23556;DHT22;11956;53.184;8.578;2022-11-15T17:18:24;12.50;99.90
23556;DHT22;11956;53.184;8.578;2022-11-15T17:21:25;12.50;99.90
23556;DHT22;11956;53.184;8.578;2022-11-15T17:24:28;12.60;99.90
23556;DHT22;11956;53.184;8.578;2022-11-15T17:27:29;12.60;99.90
23556;DHT22;11956;53.184;8.578;2022-11-15T17:30:31;12.70;99.90
23556;DHT22;11956;53.184;8.578;2022-11-15T17:33:31;12.80;99.90
23556;DHT22;11956;53.184;8.578;2022-11-15T17:36:33;12.80;99.90
23556;DHT22;11956;53.184;8.578;2022-11-15T17:39:34;12.90;99.90
23556;DHT22;11956;53.184;8.578;2022-11-15T17:42:35;12.90;99.90
23556;DHT22;11956;53.184;8.578;2022-11-15T17:45:39;13.00;99.90
23556;DHT22;11956;53.184;8.578;2022-11-15T17:48:42;13.00;99.90
23556;DHT22;11956;53.184;8.578;2022-11-15T17:51:43;13.00;99.90
23556;DHT22;11956;53.184;8.578;2022-11-15T17:54:44;13.00;99.90
23556;DHT22;11956;53.184;8.578;2022-11-15T17:57:45;13.00;99.90
23556;DHT22;11956;53.184;8.578;2022-11-15T18:00:47;13.10;99.90
23556;DHT22;11956;53.184;8.578;2022-11-15T18:03:48;13.10;99.90
23556;DHT22;11956;53.184;8.578;2022-11-15T18:06:49;13.10;99.90
23556;DHT22;11956;53.184;8.578;2022-11-15T18:09:50;13.10;99.90
23556;DHT22;11956;53.184;8.578;2022-11-15T18:12:51;13.10;99.90
23556;DHT22;11956;53.184;8.578;2022-11-15T18:15:55;13.10;99.90
23556;DHT22;11956;53.184;8.578;2022-11-15T18:18:56;13.10;99.90
23556;DHT22;11956;53.184;8.578;2022-11-15T18:21:58;13.10;99.90
23556;DHT22;11956;53.184;8.578;2022-11-15T18:25:00;13.10;99.90
23556;DHT22;11956;53.184;8.578;2022-11-15T18:28:01;13.10;99.90
23556;DHT22;11956;53.184;8.578;2022-11-15T18:31:03;13.00;99.90
23556;DHT22;11956;53.184;8.578;2022-11-15T18:34:11;13.10;99.90
23556;DHT22;11956;53.184;8.578;2022-11-15T18:37:12;13.00;99.90
23556;DHT22;11956;53.184;8.578;2022-11-15T18:40:13;13.00;99.90
23556;DHT22;11956;53.184;8.578;2022-11-15T18:43:13;13.00;99.90
23556;DHT22;11956;53.184;8.578;2022-11-15T18:46:17;12.90;99.90
23556;DHT22;11956;53.184;8.578;2022-11-15T18:49:21;12.90;99.90
23556;DHT22;11956;53.184;8.578;2022-11-15T18:52:22;12.90;99.90
23556;DHT22;11956;53.184;8.578;2022-11-15T18:55:23;12.90;99.90
23556;DHT22;11956;53.184;8.578;2022-11-15T18:58:24;12.90;99.90
23556;DHT22;11956;53.184;8.578;2022-11-15T19:01:36;12.90;99.90
23556;DHT22;11956;53.184;8.578;2022-11-15T19:04:38;12.90;99.90
23556;DHT22;11956;53.184;8.578;2022-11-15T19:07:39;12.90;99.90
23556;DHT22;11956;53.184;8.578;2022-11-15T19:10:40;12.90;99.90
23556;DHT22;11956;53.184;8.578;2022-11-15T19:13:41;12.80;99.90
23556;DHT22;11956;53.184;8.578;2022-11-15T19:16:45;12.80;99.90
23556;DHT22;11956;53.184;8.578;2022-11-15T19:19:51;12.80;99.90
23556;DHT22;11956;53.184;8.578;2022-11-15T19:22:52;12.80;99.90
23556;DHT22;11956;53.184;8.578;2022-11-15T19:25:54;12.90;99.90
23556;DHT22;11956;53.184;8.578;2022-11-15T19:28:57;12.90;99.90
23556;DHT22;11956;53.184;8.578;2022-11-15T19:31:59;12.80;99.90
23556;DHT22;11956;53.184;8.578;2022-11-15T19:35:01;12.80;99.90
23556;DHT22;11956;53.184;8.578;2022-11-15T19:38:02;12.80;99.90
23556;DHT22;11956;53.184;8.578;2022-11-15T19:41:05;12.80;99.90
23556;DHT22;11956;53.184;8.578;2022-11-15T19:44:13;12.80;99.90
23556;DHT22;11956;53.184;8.578;2022-11-15T19:47:14;12.90;99.90
23556;DHT22;11956;53.184;8.578;2022-11-15T19:50:15;12.80;99.90
23556;DHT22;11956;53.184;8.578;2022-11-15T19:53:16;12.80;99.90
23556;DHT22;11956;53.184;8.578;2022-11-15T19:56:18;12.90;99.90
23556;DHT22;11956;53.184;8.578;2022-11-15T19:59:20;12.80;99.90
23556;DHT22;11956;53.184;8.578;2022-11-15T20:02:21;12.80;99.90
23556;DHT22;11956;53.184;8.578;2022-11-15T20:05:22;12.80;99.90
23556;DHT22;11956;53.184;8.578;2022-11-15T20:08:23;12.80;99.90
23556;DHT22;11956;53.184;8.578;2022-11-15T20:11:25;12.80;99.90
23556;DHT22;11956;53.184;8.578;2022-11-15T20:14:25;12.80;99.90
23556;DHT22;11956;53.184;8.578;2022-11-15T20:17:28;12.80;99.90
23556;DHT22;11956;53.184;8.578;2022-11-15T20:20:29;12.90;99.90
23556;DHT22;11956;53.184;8.578;2022-11-15T20:23:30;12.90;99.90
23556;DHT22;11956;53.184;8.578;2022-11-15T20:26:31;12.80;99.90
23556;DHT22;11956;53.184;8.578;2022-11-15T20:29:32;12.90;99.90
23556;DHT22;11956;53.184;8.578;2022-11-15T20:32:33;12.90;99.90
23556;DHT22;11956;53.184;8.578;2022-11-15T20:35:34;12.90;99.90
23556;DHT22;11956;53.184;8.578;2022-11-15T20:38:34;12.80;99.90
23556;DHT22;11956;53.184;8.578;2022-11-15T20:41:36;12.80;99.90
23556;DHT22;11956;53.184;8.578;2022-11-15T20:44:37;12.80;99.90
23556;DHT22;11956;53.184;8.578;2022-11-15T20:47:38;12.90;99.90
23556;DHT22;11956;53.184;8.578;2022-11-15T20:50:40;12.90;99.90
23556;DHT22;11956;53.184;8.578;2022-11-15T20:53:44;12.90;99.90
23556;DHT22;11956;53.184;8.578;2022-11-15T20:56:45;12.80;99.90
23556;DHT22;11956;53.184;8.578;2022-11-15T20:59:46;12.80;99.90
23556;DHT22;11956;53.184;8.578;2022-11-15T21:02:47;12.80;99.90
23556;DHT22;11956;53.184;8.578;2022-11-15T21:05:48;12.80;99.90
23556;DHT22;11956;53.184;8.578;2022-11-15T21:08:50;12.80;99.90
23556;DHT22;11956;53.184;8.578;2022-11-15T21:12:13;12.80;99.90
23556;DHT22;11956;53.184;8.578;2022-11-15T21:15:14;12.80;99.90
23556;DHT22;11956;53.184;8.578;2022-11-15T21:18:15;12.70;99.90
23556;DHT22;11956;53.184;8.578;2022-11-15T21:21:16;12.70;99.90
23556;DHT22;11956;53.184;8.578;2022-11-15T21:24:17;12.70;99.90
23556;DHT22;11956;53.184;8.578;2022-11-15T21:27:19;12.70;99.90
23556;DHT22;11956;53.184;8.578;2022-11-15T21:30:20;12.70;99.90
23556;DHT22;11956;53.184;8.578;2022-11-15T21:33:21;12.70;99.90
23556;DHT22;11956;53.184;8.578;2022-11-15T21:36:23;12.70;99.90
23556;DHT22;11956;53.184;8.578;2022-11-15T21:39:24;12.60;99.90
23556;DHT22;11956;53.184;8.578;2022-11-15T21:42:25;12.60;99.90
23556;DHT22;11956;53.184;8.578;2022-11-15T21:45:26;12.60;99.90
23556;DHT22;11956;53.184;8.578;2022-11-15T21:48:29;12.60;99.90
23556;DHT22;11956;53.184;8.578;2022-11-15T21:51:30;12.70;99.90
23556;DHT22;11956;53.184;8.578;2022-11-15T21:54:32;12.70;99.90
23556;DHT22;11956;53.184;8.578;2022-11-15T21:57:33;12.60;99.90
23556;DHT22;11956;53.184;8.578;2022-11-15T22:00:33;12.60;99.90